createdAt,value
2023-02-01T06:08:53.667Z,21.50
2023-02-01T06:13:47.491Z,19.03
2023-02-01T06:18:42.521Z,20.07
2023-02-01T06:23:37.257Z,26.63
2023-02-01T06:28:33.717Z,33.30
2023-02-01T06:33:27.670Z,27.83
2023-02-01T06:38:21.671Z,36.97
2023-02-01T06:43:15.345Z,39.73
2023-02-01T06:48:10.464Z,62.40
2023-02-01T06:53:04.147Z,43.73
2023-02-01T06:57:58.534Z,34.17
2023-02-01T07:02:53.047Z,28.83
2023-02-01T07:07:47.984Z,37.70
2023-02-01T07:12:41.751Z,43.97
2023-02-01T07:17:35.435Z,39.37
2023-02-01T07:22:29.174Z,103.00
2023-02-01T07:27:26.611Z,53.67
2023-02-01T07:32:20.244Z,47.03
2023-02-01T07:37:14.057Z,55.27
2023-02-01T07:42:08.381Z,42.50
2023-02-01T07:47:03.534Z,39.87
2023-02-01T07:51:57.160Z,52.33
2023-02-01T07:56:50.993Z,57.63
2023-02-01T08:01:44.932Z,43.63
2023-02-01T08:06:40.328Z,32.77
2023-02-01T08:11:34.659Z,30.50
2023-02-01T08:16:28.380Z,32.50
2023-02-01T08:21:24.328Z,33.37
2023-02-01T08:26:21.550Z,28.97
2023-02-01T08:31:17.349Z,28.53
2023-02-01T08:36:12.475Z,20.00
2023-02-01T08:41:10.607Z,13.00
2023-02-01T08:46:06.079Z,17.10
2023-02-01T08:50:59.696Z,14.17
2023-02-01T08:55:53.717Z,15.10
2023-02-01T09:00:49.207Z,17.37
2023-02-01T09:05:49.851Z,14.60
2023-02-01T09:10:44.304Z,15.70
2023-02-01T09:15:39.434Z,12.00
2023-02-01T09:20:33.163Z,16.63
2023-02-01T09:25:29.502Z,10.67
2023-02-01T09:30:23.494Z,8.57
2023-02-01T09:35:17.625Z,10.63
2023-02-01T09:40:16.187Z,7.30
2023-02-01T09:45:22.474Z,11.57
2023-02-01T09:50:22.039Z,13.30
2023-02-01T09:55:22.140Z,13.30
2023-02-01T10:00:23.366Z,8.03
2023-02-01T10:05:25.149Z,13.43
2023-02-01T10:10:26.369Z,7.90
2023-02-01T10:15:33.024Z,10.43
2023-02-01T10:20:32.366Z,13.93
2023-02-01T10:25:31.267Z,4.63
2023-02-01T10:30:32.813Z,1.23
2023-02-01T10:35:32.379Z,2.33
2023-02-01T10:40:30.190Z,1.20
2023-02-01T10:45:30.492Z,1.27
2023-02-01T10:50:36.283Z,2.80
2023-02-01T10:55:40.801Z,1.10
2023-02-01T11:00:48.713Z,2.17
2023-02-01T11:05:47.284Z,3.57
2023-02-01T11:10:42.902Z,3.43
2023-02-01T11:15:36.922Z,1.13
2023-02-01T11:20:42.077Z,5.97
2023-02-01T11:25:38.834Z,0.80
2023-02-01T11:30:37.301Z,1.13
2023-02-01T11:35:32.111Z,1.77
2023-02-01T11:40:29.947Z,1.60
2023-02-01T11:45:28.787Z,1.43
2023-02-01T11:50:31.195Z,0.90
2023-02-01T11:55:47.744Z,0.93
2023-02-01T12:01:00.477Z,1.37
2023-02-01T12:06:01.605Z,1.27
2023-02-01T12:11:20.892Z,4.37
2023-02-01T12:16:25.842Z,1.53
2023-02-01T12:21:35.427Z,1.43
2023-02-01T12:26:49.589Z,1.07
2023-02-01T12:32:09.116Z,4.50
2023-02-01T12:37:19.724Z,2.27
2023-02-01T12:42:20.299Z,2.87
2023-02-01T12:47:20.936Z,0.70
2023-02-01T12:52:20.775Z,7.90
2023-02-01T12:57:20.416Z,2.00
2023-02-01T13:02:21.092Z,2.40
2023-02-01T13:07:20.208Z,1.80
2023-02-01T13:12:19.755Z,0.83
2023-02-01T13:17:16.953Z,2.57
2023-02-01T13:22:14.431Z,4.80
2023-02-01T13:27:13.909Z,2.40
2023-02-01T13:33:50.683Z,2.10
2023-02-01T13:38:36.834Z,1.80
2023-02-01T13:43:33.536Z,1.00
2023-02-01T13:48:38.241Z,1.03
2023-02-01T13:53:34.165Z,0.83
2023-02-01T13:58:34.801Z,1.70
2023-02-01T14:03:48.633Z,1.17
2023-02-01T14:08:45.709Z,1.43
2023-02-01T14:13:41.072Z,2.23
2023-02-01T14:19:20.454Z,1.13
2023-02-01T14:24:23.707Z,0.93
2023-02-01T14:29:46.976Z,2.73
2023-02-01T14:35:05.260Z,1.73
2023-02-01T14:40:08.207Z,1.40
2023-02-01T14:45:39.620Z,1.60
2023-02-01T14:50:41.856Z,0.80
2023-02-01T14:55:40.840Z,1.03
2023-02-01T15:00:35.464Z,1.40
2023-02-01T15:05:34.029Z,1.50
2023-02-01T15:10:30.258Z,1.20
2023-02-01T15:15:26.962Z,2.37
2023-02-01T15:20:23.940Z,1.50
2023-02-01T15:25:22.891Z,1.00
2023-02-01T15:30:25.046Z,1.17
2023-02-01T15:35:41.884Z,2.00
2023-02-01T15:40:36.150Z,1.93
2023-02-01T15:45:36.200Z,1.27
2023-02-01T15:50:52.222Z,2.43
2023-02-01T15:55:47.934Z,2.00
2023-02-01T16:00:48.483Z,1.70
2023-02-01T16:05:46.080Z,2.33
2023-02-01T16:10:43.035Z,2.50
2023-02-01T16:15:38.587Z,1.93
2023-02-01T16:20:36.572Z,1.43
2023-02-01T16:25:30.686Z,2.50
2023-02-01T16:30:25.505Z,1.90
2023-02-01T16:35:25.881Z,3.77
2023-02-01T16:40:24.320Z,2.00
2023-02-01T16:45:18.804Z,3.47
2023-02-01T16:50:23.335Z,3.00
2023-02-01T16:55:20.904Z,3.43
2023-02-01T17:00:24.724Z,2.70
2023-02-01T17:05:19.911Z,1.43
2023-02-01T17:10:33.058Z,2.37
2023-02-01T17:15:37.749Z,13.03
2023-02-01T17:20:36.324Z,17.43
2023-02-01T17:25:51.863Z,6.20
2023-02-01T17:30:52.609Z,1.93
2023-02-01T17:35:48.361Z,2.10
2023-02-01T17:46:05.833Z,2.30
2023-02-01T17:51:02.571Z,3.30
2023-02-01T17:55:58.555Z,4.93
2023-02-01T18:01:00.270Z,71.13
2023-02-01T18:05:57.492Z,2.00
2023-02-01T18:16:41.714Z,2.73
2023-02-01T18:21:50.842Z,2.13
2023-02-01T18:26:50.505Z,6.47
2023-02-01T18:37:24.086Z,3.20
2023-02-01T18:47:45.307Z,3.37
2023-02-01T18:52:39.257Z,3.90
2023-02-01T18:57:33.733Z,6.37
2023-02-01T19:02:28.261Z,5.00
2023-02-01T19:07:27.543Z,12.27
2023-02-01T19:12:21.780Z,6.93
2023-02-01T19:17:15.312Z,3.60
2023-02-01T19:22:09.161Z,4.37
2023-02-01T19:27:04.301Z,3.47
2023-02-01T19:31:59.814Z,2.70
2023-02-01T19:36:55.248Z,3.27
2023-02-01T19:41:48.969Z,2.23
2023-02-01T19:46:44.338Z,2.67
